Time;durP1;ratioP1;P1;durP2;ratioP2;P2;SDS_P1;SDS_P2;PMS_P1;PMS_P2;Temp;Humidity;BMP_temperature;BMP_pressure;BME280_temperature;BME280_humidity;BME280_pressure;Samples;Min_cycle;Max_cycle;Signal;HPM_P1;HPM_P2
2023/10/20 00:02:17;;;;;;;33.03;15.77;;;;;;;;;;6287281;28;20187;-84
2023/10/20 00:05:19;;;;;;;30.58;14.85;;;;;;;;;;6269287;28;20041;-83
2023/10/20 00:08:20;;;;;;;30.95;14.43;;;;;;;;;;6287085;28;20110;-81
2023/10/20 00:11:25;;;;;;;31.92;15.27;;;;;;;;;;6287369;28;20054;-82
2023/10/20 00:14:27;;;;;;;29.50;13.93;;;;;;;;;;6255754;28;20077;-83
2023/10/20 00:17:29;;;;;;;29.70;13.40;;;;;;;;;;6267422;28;20096;-83
2023/10/20 00:20:31;;;;;;;27.27;14.33;;;;;;;;;;6247148;28;20078;-82
2023/10/20 00:23:33;;;;;;;28.15;12.85;;;;;;;;;;6287409;28;20206;-84
2023/10/20 00:26:35;;;;;;;22.92;11.43;;;;;;;;;;6283199;28;20056;-84
2023/10/20 00:29:36;;;;;;;17.50;9.43;;;;;;;;;;6255392;28;20060;-84
2023/10/20 00:32:42;;;;;;;20.45;10.13;;;;;;;;;;6270198;28;20049;-83
2023/10/20 00:35:43;;;;;;;17.05;9.35;;;;;;;;;;6255401;28;20574;-83
2023/10/20 00:38:45;;;;;;;15.50;8.40;;;;;;;;;;6286780;28;20094;-84
2023/10/20 00:41:47;;;;;;;15.25;8.18;;;;;;;;;;6252150;28;20048;-84
2023/10/20 00:44:48;;;;;;;17.50;8.23;;;;;;;;;;6270504;28;20056;-84
2023/10/20 00:47:50;;;;;;;14.70;8.65;;;;;;;;;;6245510;28;20060;-83
2023/10/20 00:50:52;;;;;;;15.18;8.70;;;;;;;;;;6266930;28;20052;-84
2023/10/20 00:53:58;;;;;;;18.05;9.30;;;;;;;;;;6247134;28;20051;-83
2023/10/20 00:57:01;;;;;;;16.15;8.75;;;;;;;;;;6264069;28;20476;-84
2023/10/20 01:00:04;;;;;;;16.80;8.15;;;;;;;;;;6268081;28;21334;-82
2023/10/20 01:03:05;;;;;;;19.95;9.38;;;;;;;;;;6285916;28;20060;-84
2023/10/20 01:06:08;;;;;;;17.33;9.38;;;;;;;;;;6285407;28;20047;-84
2023/10/20 01:09:10;;;;;;;18.88;9.10;;;;;;;;;;6286037;28;20045;-83
2023/10/20 01:12:12;;;;;;;18.92;9.38;;;;;;;;;;6251122;28;20040;-84
2023/10/20 01:15:15;;;;;;;20.85;9.13;;;;;;;;;;6269052;28;20044;-81
2023/10/20 01:18:17;;;;;;;17.67;8.73;;;;;;;;;;6273131;28;20049;-84
2023/10/20 01:21:19;;;;;;;18.05;8.63;;;;;;;;;;6282539;28;20043;-83
2023/10/20 01:24:20;;;;;;;18.05;8.80;;;;;;;;;;6286798;28;20415;-84
2023/10/20 01:27:22;;;;;;;21.42;9.70;;;;;;;;;;6215292;22;20045;-83
2023/10/20 01:30:25;;;;;;;19.50;8.93;;;;;;;;;;6181138;28;20069;-83
2023/10/20 01:33:26;;;;;;;22.35;9.07;;;;;;;;;;6196122;28;20049;-83
2023/10/20 01:36:29;;;;;;;24.02;9.38;;;;;;;;;;6199414;28;20400;-83
2023/10/20 01:39:31;;;;;;;21.63;9.38;;;;;;;;;;6186848;28;20344;-83
2023/10/20 01:42:32;;;;;;;18.63;9.07;;;;;;;;;;6204804;28;20050;-83
2023/10/20 01:45:34;;;;;;;23.95;8.93;;;;;;;;;;6202313;28;20111;-83
2023/10/20 01:48:36;;;;;;;21.10;9.38;;;;;;;;;;6195622;28;20516;-83
2023/10/20 01:51:38;;;;;;;22.15;9.48;;;;;;;;;;6190015;28;20050;-82
2023/10/20 01:54:40;;;;;;;24.08;9.25;;;;;;;;;;6200179;28;20046;-83
2023/10/20 01:57:41;;;;;;;24.30;10.25;;;;;;;;;;6202518;28;20049;-84
2023/10/20 02:00:44;;;;;;;21.65;9.32;;;;;;;;;;6187865;28;20046;-83
2023/10/20 02:03:47;;;;;;;23.83;9.77;;;;;;;;;;6209968;28;20050;-84
2023/10/20 02:06:48;;;;;;;;;;;;;;;;;;6210957;28;20042;-82
2023/10/20 02:09:50;;;;;;;22.20;9.98;;;;;;;;;;6195581;28;19951;-84
2023/10/20 02:12:52;;;;;;;24.60;10.10;;;;;;;;;;6190754;28;20042;-84
2023/10/20 02:15:54;;;;;;;23.70;10.20;;;;;;;;;;6189925;28;20043;-83
2023/10/20 02:18:56;;;;;;;27.45;10.85;;;;;;;;;;6209530;28;20046;-83
2023/10/20 02:22:01;;;;;;;27.27;10.88;;;;;;;;;;6196152;28;20053;-83
2023/10/20 02:25:03;;;;;;;25.42;10.35;;;;;;;;;;6184145;28;20042;-83
2023/10/20 02:28:05;;;;;;;25.80;10.75;;;;;;;;;;6204275;28;20068;-84
2023/10/20 02:31:12;;;;;;;25.50;10.88;;;;;;;;;;6196095;28;20054;-83
2023/10/20 02:34:14;;;;;;;26.75;10.98;;;;;;;;;;6211726;28;20096;-83
2023/10/20 02:37:16;;;;;;;29.40;11.57;;;;;;;;;;6197032;28;20107;-83
2023/10/20 02:40:18;;;;;;;26.40;11.40;;;;;;;;;;6199380;28;20054;-84
2023/10/20 02:43:23;;;;;;;26.65;11.38;;;;;;;;;;6208418;28;20573;-83
2023/10/20 02:46:25;;;;;;;28.98;11.65;;;;;;;;;;6186283;28;20065;-83
2023/10/20 02:49:27;;;;;;;23.40;10.32;;;;;;;;;;6177660;28;20100;-84
2023/10/20 02:52:29;;;;;;;25.63;11.07;;;;;;;;;;6206799;28;20042;-82
2023/10/20 02:55:31;;;;;;;24.73;10.95;;;;;;;;;;6220676;28;20053;-83
2023/10/20 02:58:33;;;;;;;24.70;10.95;;;;;;;;;;6200489;28;20054;-83
2023/10/20 03:01:36;;;;;;;27.45;11.57;;;;;;;;;;6181538;28;20080;-84
2023/10/20 03:04:38;;;;;;;21.58;9.95;;;;;;;;;;6197277;28;20293;-82
2023/10/20 03:07:41;;;;;;;21.25;10.20;;;;;;;;;;6195047;28;20054;-84
2023/10/20 03:10:43;;;;;;;20.02;9.35;;;;;;;;;;6205303;28;20054;-84
2023/10/20 03:13:45;;;;;;;19.77;9.45;;;;;;;;;;6189856;28;20050;-84
2023/10/20 03:16:47;;;;;;;20.80;10.30;;;;;;;;;;6201779;28;20046;-84
2023/10/20 03:19:49;;;;;;;18.73;9.70;;;;;;;;;;6196131;28;20047;-84
2023/10/20 03:22:52;;;;;;;17.70;10.00;;;;;;;;;;6208605;28;20053;-84
2023/10/20 03:25:54;;;;;;;17.17;9.38;;;;;;;;;;6207423;28;20453;-84
2023/10/20 03:28:56;;;;;;;18.57;9.37;;;;;;;;;;6210881;28;20053;-83
2023/10/20 03:31:58;;;;;;;17.92;9.60;;;;;;;;;;6195447;28;20056;-84
2023/10/20 03:35:00;;;;;;;20.30;9.77;;;;;;;;;;6205204;28;20060;-82
2023/10/20 03:38:04;;;;;;;17.73;10.05;;;;;;;;;;6202327;28;20108;-84
2023/10/20 03:41:06;;;;;;;18.50;9.50;;;;;;;;;;6220201;28;20034;-85
2023/10/20 03:44:08;;;;;;;16.48;8.98;;;;;;;;;;6206891;28;20061;-83
2023/10/20 03:47:13;;;;;;;;;;;;;;;;;;6219256;28;20045;-84
2023/10/20 03:50:16;;;;;;;14.07;9.07;;;;;;;;;;6211227;28;19934;-83
2023/10/20 03:53:27;;;;;;;15.93;8.88;;;;;;;;;;6174078;28;20246;-83
2023/10/20 03:56:29;;;;;;;17.48;9.32;;;;;;;;;;6185594;28;20050;-83
2023/10/20 03:59:31;;;;;;;18.23;10.25;;;;;;;;;;6196485;28;20052;-83
2023/10/20 04:02:33;;;;;;;16.33;9.30;;;;;;;;;;6204980;28;20056;-82
2023/10/20 04:05:35;;;;;;;18.60;10.73;;;;;;;;;;6202438;28;20050;-82
2023/10/20 04:08:37;;;;;;;19.45;10.35;;;;;;;;;;6171974;28;20045;-82
2023/10/20 04:11:39;;;;;;;21.15;10.27;;;;;;;;;;6202158;28;20053;-83
2023/10/20 04:14:41;;;;;;;19.40;10.65;;;;;;;;;;6200293;28;20050;-83
2023/10/20 04:17:44;;;;;;;17.93;10.60;;;;;;;;;;6177803;28;20214;-83
2023/10/20 04:20:49;;;;;;;18.25;10.57;;;;;;;;;;6208675;28;20050;-82
2023/10/20 04:23:51;;;;;;;19.65;10.65;;;;;;;;;;6174257;28;20077;-83
2023/10/20 04:26:55;;;;;;;22.13;11.07;;;;;;;;;;6172057;28;20039;-83
2023/10/20 04:43:37;;;;;;;20.42;10.95;;;;;;;;;;6212651;28;20500;-82
2023/10/20 04:47:07;;;;;;;21.20;11.85;;;;;;;;;;6194786;28;20527;-83
2023/10/20 04:50:43;;;;;;;21.60;11.73;;;;;;;;;;6189696;28;20069;-83
2023/10/20 04:53:53;;;;;;;22.23;11.27;;;;;;;;;;6215855;28;20056;-84
2023/10/20 04:57:28;;;;;;;22.70;12.05;;;;;;;;;;6187641;28;20428;-84
2023/10/20 05:03:34;;;;;;;24.25;12.65;;;;;;;;;;6209546;28;20105;-83
2023/10/20 05:06:53;;;;;;;23.52;11.77;;;;;;;;;;6189208;28;20397;-84
2023/10/20 05:09:55;;;;;;;24.70;12.98;;;;;;;;;;6197222;28;20243;-86
2023/10/20 05:12:59;;;;;;;23.27;11.98;;;;;;;;;;6186549;28;20523;-86
2023/10/20 05:16:10;;;;;;;21.73;12.30;;;;;;;;;;6206377;28;21341;-82
2023/10/20 05:19:12;;;;;;;22.63;12.13;;;;;;;;;;6192015;28;20046;-83
2023/10/20 05:22:14;;;;;;;20.33;11.05;;;;;;;;;;6192736;28;20136;-83
2023/10/20 05:25:16;;;;;;;21.55;11.95;;;;;;;;;;6190111;28;20519;-82
2023/10/20 05:28:18;;;;;;;23.20;12.17;;;;;;;;;;6198457;28;20048;-82
2023/10/20 05:31:25;;;;;;;24.13;13.02;;;;;;;;;;6192049;28;20088;-84
2023/10/20 05:34:27;;;;;;;21.67;12.13;;;;;;;;;;6191903;28;20034;-85
2023/10/20 05:37:29;;;;;;;19.92;12.25;;;;;;;;;;6212882;28;20042;-84
2023/10/20 05:40:32;;;;;;;20.00;12.07;;;;;;;;;;6214797;28;20547;-84
2023/10/20 05:43:34;;;;;;;20.45;11.80;;;;;;;;;;6187452;28;20526;-85
2023/10/20 05:46:37;;;;;;;22.60;12.50;;;;;;;;;;6211686;28;20065;-83
2023/10/20 05:49:39;;;;;;;24.85;12.10;;;;;;;;;;6183488;28;20061;-84
2023/10/20 05:52:41;;;;;;;23.60;12.90;;;;;;;;;;6212673;28;20054;-83
2023/10/20 05:55:43;;;;;;;25.25;12.82;;;;;;;;;;6203417;28;20500;-83
2023/10/20 05:58:44;;;;;;;25.20;13.48;;;;;;;;;;6194511;28;20050;-84
2023/10/20 06:01:46;;;;;;;25.92;12.68;;;;;;;;;;6210189;28;20064;-84
2023/10/20 06:04:48;;;;;;;24.05;13.25;;;;;;;;;;6187295;28;20421;-83
2023/10/20 06:07:49;;;;;;;20.33;12.38;;;;;;;;;;6214394;28;20049;-84
2023/10/20 06:10:52;;;;;;;22.90;13.18;;;;;;;;;;6193554;28;20057;-84
2023/10/20 06:13:54;;;;;;;20.67;12.35;;;;;;;;;;6194915;28;20428;-84
2023/10/20 06:16:55;;;;;;;23.50;12.52;;;;;;;;;;6186444;28;20549;-84
2023/10/20 06:19:57;;;;;;;23.33;13.00;;;;;;;;;;6195975;28;20453;-83
2023/10/20 06:23:00;;;;;;;26.65;14.27;;;;;;;;;;6187129;28;20042;-83
2023/10/20 06:26:01;;;;;;;23.23;12.52;;;;;;;;;;6198771;28;20049;-83
2023/10/20 06:29:20;;;;;;;22.90;12.95;;;;;;;;;;6219033;28;20443;-83
2023/10/20 06:32:25;;;;;;;21.05;11.95;;;;;;;;;;6193406;28;20250;-83
2023/10/20 06:35:33;;;;;;;23.30;12.45;;;;;;;;;;6194062;28;20042;-83
2023/10/20 06:38:44;;;;;;;22.30;12.90;;;;;;;;;;6192429;28;20501;-83
2023/10/20 06:41:47;;;;;;;23.45;12.98;;;;;;;;;;6200890;28;20061;-83
2023/10/20 06:44:54;;;;;;;22.88;12.65;;;;;;;;;;6173962;28;20038;-84
2023/10/20 06:47:57;;;;;;;18.27;11.77;;;;;;;;;;6201730;28;20452;-82
2023/10/20 06:50:59;;;;;;;22.83;12.52;;;;;;;;;;6196146;28;20359;-82
2023/10/20 06:54:01;;;;;;;19.25;11.00;;;;;;;;;;6195231;28;20046;-81
2023/10/20 06:57:02;;;;;;;20.38;11.80;;;;;;;;;;6197136;28;20107;-82
2023/10/20 07:00:16;;;;;;;18.92;11.15;;;;;;;;;;6199213;28;20049;-81
2023/10/20 07:03:18;;;;;;;18.30;11.35;;;;;;;;;;6205768;28;20097;-81
2023/10/20 07:06:20;;;;;;;17.48;10.60;;;;;;;;;;6193962;28;20041;-81
2023/10/20 07:09:22;;;;;;;17.75;10.77;;;;;;;;;;6199301;28;20045;-81
2023/10/20 07:12:24;;;;;;;21.83;12.85;;;;;;;;;;6171566;28;20078;-82
2023/10/20 07:15:26;;;;;;;19.20;12.23;;;;;;;;;;6209409;28;20042;-82
2023/10/20 07:18:28;;;;;;;18.10;10.60;;;;;;;;;;6191036;28;20041;-82
2023/10/20 07:21:30;;;;;;;20.92;13.05;;;;;;;;;;6192901;28;20049;-81
2023/10/20 07:24:33;;;;;;;24.30;12.73;;;;;;;;;;6184335;28;20499;-83
2023/10/20 07:27:35;;;;;;;21.00;12.60;;;;;;;;;;6174831;28;20054;-82
2023/10/20 07:30:37;;;;;;;24.75;14.38;;;;;;;;;;6190992;28;20053;-82
2023/10/20 07:33:42;;;;;;;19.25;12.00;;;;;;;;;;6193063;28;20042;-82
2023/10/20 07:36:45;;;;;;;41.28;22.52;;;;;;;;;;6199003;28;20509;-83
2023/10/20 07:39:51;;;;;;;28.15;17.45;;;;;;;;;;6185338;28;20045;-83
2023/10/20 07:42:53;;;;;;;19.52;12.77;;;;;;;;;;6185277;28;20054;-82
2023/10/20 07:45:55;;;;;;;22.85;12.75;;;;;;;;;;6191163;28;20037;-83
2023/10/20 07:48:58;;;;;;;22.58;13.50;;;;;;;;;;6159734;28;20051;-83
2023/10/20 07:52:01;;;;;;;;;;;;;;;;;;6184565;28;20049;-82
2023/10/20 07:55:05;;;;;;;19.57;11.03;;;;;;;;;;6192557;28;20076;-82
2023/10/20 07:58:08;;;;;;;21.67;11.00;;;;;;;;;;6203800;28;20038;-83
2023/10/20 08:01:10;;;;;;;19.25;11.18;;;;;;;;;;6175616;28;20060;-83
2023/10/20 08:04:12;;;;;;;21.27;11.75;;;;;;;;;;6189959;28;20049;-83
2023/10/20 08:07:15;;;;;;;21.45;12.48;;;;;;;;;;6190154;28;20046;-83
2023/10/20 08:10:17;;;;;;;18.40;11.63;;;;;;;;;;6183115;28;20038;-83
2023/10/20 08:13:19;;;;;;;18.65;11.02;;;;;;;;;;6169675;28;20185;-83
2023/10/20 08:16:21;;;;;;;18.05;10.88;;;;;;;;;;6198333;28;20233;-83
2023/10/20 08:19:23;;;;;;;15.98;10.57;;;;;;;;;;6196090;28;20042;-83
2023/10/20 08:22:25;;;;;;;18.48;11.52;;;;;;;;;;6201266;28;20528;-83
2023/10/20 08:25:27;;;;;;;18.35;11.02;;;;;;;;;;6195462;28;20133;-83
2023/10/20 08:28:29;;;;;;;18.17;11.70;;;;;;;;;;6211578;28;20113;-83
2023/10/20 08:31:30;;;;;;;16.40;10.48;;;;;;;;;;6193937;28;20046;-84
2023/10/20 08:34:32;;;;;;;20.45;12.18;;;;;;;;;;6185789;28;20120;-83
2023/10/20 08:37:35;;;;;;;18.85;11.00;;;;;;;;;;6195927;28;20056;-82
2023/10/20 08:40:37;;;;;;;17.98;10.82;;;;;;;;;;6196390;28;20056;-81
2023/10/20 08:44:00;;;;;;;17.13;10.63;;;;;;;;;;6211603;28;20125;-82
2023/10/20 08:47:03;;;;;;;18.05;10.15;;;;;;;;;;6211051;28;20136;-83
2023/10/20 08:50:07;;;;;;;13.98;10.13;;;;;;;;;;6201339;28;20046;-82
2023/10/20 08:53:13;;;;;;;16.15;10.00;;;;;;;;;;6192288;28;20064;-82
2023/10/20 08:56:14;;;;;;;18.15;10.52;;;;;;;;;;6184490;28;20192;-82
2023/10/20 08:59:16;;;;;;;14.63;9.90;;;;;;;;;;6183357;28;20065;-82
2023/10/20 09:02:19;;;;;;;15.40;10.07;;;;;;;;;;6200886;28;20390;-83
2023/10/20 09:05:24;;;;;;;14.43;9.75;;;;;;;;;;6199337;28;20805;-85
2023/10/20 09:08:27;;;;;;;15.98;10.00;;;;;;;;;;6184635;28;20061;-83
2023/10/20 09:11:32;;;;;;;15.98;10.82;;;;;;;;;;6204336;28;20049;-83
2023/10/20 09:14:40;;;;;;;15.90;9.18;;;;;;;;;;6174709;28;20049;-83
2023/10/20 09:17:42;;;;;;;14.85;9.77;;;;;;;;;;6211957;28;20416;-84
2023/10/20 09:20:47;;;;;;;12.63;8.55;;;;;;;;;;6196809;28;20092;-83
2023/10/20 09:24:06;;;;;;;12.98;7.95;;;;;;;;;;6204210;28;20049;-83
2023/10/20 09:27:11;;;;;;;12.32;8.02;;;;;;;;;;6197515;28;20452;-83
2023/10/20 09:30:14;;;;;;;10.77;7.55;;;;;;;;;;6212417;28;20504;-83
2023/10/20 09:33:18;;;;;;;12.95;8.25;;;;;;;;;;6203609;28;20522;-84
2023/10/20 09:36:24;;;;;;;11.45;7.95;;;;;;;;;;6213650;28;20050;-83
2023/10/20 09:39:39;;;;;;;11.35;7.70;;;;;;;;;;6217709;28;20053;-84
2023/10/20 09:42:49;;;;;;;10.88;7.47;;;;;;;;;;6208030;28;20037;-85
2023/10/20 09:46:07;;;;;;;10.95;7.15;;;;;;;;;;6216467;28;20052;-85
2023/10/20 09:49:20;;;;;;;11.52;7.55;;;;;;;;;;6210125;28;20053;-85
2023/10/20 09:52:21;;;;;;;11.23;7.30;;;;;;;;;;6219447;28;20049;-84
2023/10/20 09:55:24;;;;;;;9.90;6.45;;;;;;;;;;6237174;28;20057;-83
2023/10/20 09:58:33;;;;;;;13.15;6.55;;;;;;;;;;6217336;28;20045;-86
2023/10/20 10:01:39;;;;;;;8.80;6.20;;;;;;;;;;6223884;28;20057;-84
2023/10/20 10:04:43;;;;;;;9.10;6.10;;;;;;;;;;6204066;28;20050;-83
2023/10/20 10:07:46;;;;;;;9.77;5.85;;;;;;;;;;6194425;28;20042;-84
2023/10/20 10:10:49;;;;;;;8.07;6.10;;;;;;;;;;6200692;28;20135;-88
2023/10/20 10:14:02;;;;;;;9.35;5.90;;;;;;;;;;6138402;28;20043;-87
2023/10/20 10:17:10;;;;;;;7.35;5.63;;;;;;;;;;6216837;28;20054;-87
2023/10/20 10:20:27;;;;;;;10.23;5.78;;;;;;;;;;6203647;28;20053;-87
2023/10/20 10:23:29;;;;;;;9.50;5.43;;;;;;;;;;6187282;28;20065;-83
2023/10/20 10:26:31;;;;;;;8.35;5.80;;;;;;;;;;6182032;28;20156;-85
2023/10/20 10:29:50;;;;;;;9.00;5.70;;;;;;;;;;6207364;28;20045;-85
2023/10/20 10:32:52;;;;;;;8.32;5.82;;;;;;;;;;6203870;28;20038;-85
2023/10/20 10:36:10;;;;;;;7.72;5.82;;;;;;;;;;6161964;28;20049;-85
2023/10/20 10:39:24;;;;;;;8.30;5.85;;;;;;;;;;6196974;28;20084;-83
2023/10/20 10:42:27;;;;;;;7.47;5.20;;;;;;;;;;6205432;28;20041;-83
2023/10/20 10:45:35;;;;;;;8.25;5.80;;;;;;;;;;6219049;28;20081;-83
2023/10/20 10:48:39;;;;;;;9.90;5.47;;;;;;;;;;6222905;28;20053;-83
2023/10/20 10:51:48;;;;;;;9.18;5.55;;;;;;;;;;6196785;28;20045;-83
2023/10/20 10:54:51;;;;;;;8.90;6.32;;;;;;;;;;6172411;28;20160;-83
2023/10/20 10:57:55;;;;;;;9.82;6.65;;;;;;;;;;6176400;28;20127;-83
2023/10/20 11:00:59;;;;;;;8.00;6.07;;;;;;;;;;6196361;28;20053;-83
2023/10/20 11:04:05;;;;;;;10.07;6.00;;;;;;;;;;6202652;28;20056;-83
2023/10/20 11:07:07;;;;;;;7.35;5.38;;;;;;;;;;6195548;28;20058;-83
2023/10/20 11:10:15;;;;;;;8.48;6.20;;;;;;;;;;6222787;28;20045;-84
2023/10/20 11:13:19;;;;;;;9.32;6.15;;;;;;;;;;6209381;28;20299;-83
2023/10/20 11:16:23;;;;;;;10.60;7.50;;;;;;;;;;6163278;28;20048;-83
2023/10/20 11:19:25;;;;;;;9.80;6.20;;;;;;;;;;6210653;28;20507;-83
2023/10/20 11:22:37;;;;;;;17.48;7.38;;;;;;;;;;6202752;28;20056;-82
2023/10/20 11:25:41;;;;;;;12.40;7.85;;;;;;;;;;6196513;28;20192;-82
2023/10/20 11:28:46;;;;;;;10.10;7.20;;;;;;;;;;6169761;28;20050;-83
2023/10/20 11:31:48;;;;;;;9.93;7.35;;;;;;;;;;6213839;28;20049;-82
2023/10/20 11:34:50;;;;;;;13.15;8.25;;;;;;;;;;6200881;28;20050;-82
2023/10/20 11:37:56;;;;;;;14.60;9.45;;;;;;;;;;6210062;28;20049;-82
2023/10/20 11:41:00;;;;;;;15.40;9.57;;;;;;;;;;6192072;28;20436;-83
2023/10/20 11:44:01;;;;;;;14.40;9.73;;;;;;;;;;6213781;28;20708;-83
2023/10/20 11:47:03;;;;;;;10.82;7.70;;;;;;;;;;6200113;28;20046;-82
2023/10/20 11:50:08;;;;;;;12.32;8.00;;;;;;;;;;6191488;28;20061;-82
2023/10/20 11:53:12;;;;;;;10.82;7.43;;;;;;;;;;6197864;28;20037;-82
2023/10/20 11:56:13;;;;;;;12.15;8.00;;;;;;;;;;6193049;28;20049;-83
2023/10/20 11:59:16;;;;;;;11.95;7.28;;;;;;;;;;6186235;28;20051;-82
2023/10/20 12:02:17;;;;;;;10.88;7.45;;;;;;;;;;6208618;28;20049;-81
2023/10/20 12:05:19;;;;;;;10.00;7.10;;;;;;;;;;6194532;28;20377;-82
2023/10/20 12:08:23;;;;;;;10.50;7.53;;;;;;;;;;6210453;28;20061;-82
2023/10/20 12:11:24;;;;;;;11.50;7.68;;;;;;;;;;6192489;28;20110;-82
2023/10/20 12:14:26;;;;;;;9.85;6.97;;;;;;;;;;6215220;28;20052;-82
2023/10/20 12:17:28;;;;;;;10.88;7.60;;;;;;;;;;6195216;28;20659;-82
2023/10/20 12:20:31;;;;;;;9.93;7.50;;;;;;;;;;6208298;28;20046;-82
2023/10/20 12:23:32;;;;;;;9.88;7.53;;;;;;;;;;6198680;28;20072;-82
2023/10/20 12:26:36;;;;;;;9.73;7.35;;;;;;;;;;6190946;28;20105;-83
2023/10/20 12:29:38;;;;;;;11.68;7.78;;;;;;;;;;6190391;28;20060;-83
2023/10/20 12:32:42;;;;;;;10.20;7.35;;;;;;;;;;6195625;28;20049;-83
2023/10/20 12:35:44;;;;;;;11.50;7.20;;;;;;;;;;6195588;28;20072;-83
2023/10/20 12:38:45;;;;;;;11.48;7.45;;;;;;;;;;6211734;28;20052;-84
2023/10/20 12:41:49;;;;;;;13.23;7.60;;;;;;;;;;6187741;28;20042;-82
2023/10/20 12:44:50;;;;;;;;;;;;;;;;;;6197264;28;20137;-83
2023/10/20 12:47:55;;;;;;;10.52;6.95;;;;;;;;;;6223990;28;19935;-83
2023/10/20 12:50:57;;;;;;;10.27;6.80;;;;;;;;;;6208650;28;20030;-82
2023/10/20 12:54:01;;;;;;;9.63;6.43;;;;;;;;;;6199337;28;20041;-82
2023/10/20 12:57:03;;;;;;;9.38;6.82;;;;;;;;;;6192541;28;20049;-83
2023/10/20 13:00:06;;;;;;;11.00;7.50;;;;;;;;;;6196846;28;20050;-82
2023/10/20 13:03:10;;;;;;;10.05;7.65;;;;;;;;;;6196387;28;20081;-82
2023/10/20 13:06:12;;;;;;;13.73;8.73;;;;;;;;;;6191725;28;20124;-83
2023/10/20 13:09:14;;;;;;;10.60;8.00;;;;;;;;;;6213603;28;20049;-83
2023/10/20 13:12:16;;;;;;;12.65;8.20;;;;;;;;;;6195436;28;20050;-83
2023/10/20 13:15:19;;;;;;;15.13;9.00;;;;;;;;;;6188356;28;20050;-83
2023/10/20 13:18:21;;;;;;;44.72;23.95;;;;;;;;;;6181744;28;20061;-84
2023/10/20 13:21:24;;;;;;;27.95;15.90;;;;;;;;;;6191115;28;20049;-83
2023/10/20 13:24:26;;;;;;;17.30;11.98;;;;;;;;;;6195901;28;20156;-85
2023/10/20 13:27:27;;;;;;;15.60;10.57;;;;;;;;;;6168596;28;20057;-84
2023/10/20 13:30:29;;;;;;;18.00;11.25;;;;;;;;;;6188108;28;20046;-85
2023/10/20 13:33:32;;;;;;;14.55;10.30;;;;;;;;;;6197632;28;20057;-85
2023/10/20 13:36:34;;;;;;;14.97;9.97;;;;;;;;;;6196997;28;20108;-84
2023/10/20 13:39:36;;;;;;;14.38;10.20;;;;;;;;;;6215791;28;20053;-84
2023/10/20 13:42:38;;;;;;;15.15;10.93;;;;;;;;;;6202087;28;20057;-86
2023/10/20 13:45:40;;;;;;;15.15;9.95;;;;;;;;;;6191464;28;20306;-84
2023/10/20 13:48:42;;;;;;;16.65;9.82;;;;;;;;;;6182298;28;20045;-85
2023/10/20 13:51:44;;;;;;;14.82;9.63;;;;;;;;;;6206055;28;20135;-84
2023/10/20 13:54:46;;;;;;;15.55;10.90;;;;;;;;;;6221575;28;20046;-85
2023/10/20 13:57:49;;;;;;;14.55;8.77;;;;;;;;;;6194870;28;20050;-84
2023/10/20 14:00:51;;;;;;;14.15;8.63;;;;;;;;;;6191367;28;20144;-85
2023/10/20 14:03:53;;;;;;;16.10;11.40;;;;;;;;;;6195533;28;20046;-86
2023/10/20 14:06:55;;;;;;;14.70;10.55;;;;;;;;;;6201354;28;20041;-84
2023/10/20 14:09:57;;;;;;;11.95;8.30;;;;;;;;;;6195465;28;20100;-85
2023/10/20 14:12:59;;;;;;;11.20;8.00;;;;;;;;;;6212075;28;20476;-84
2023/10/20 14:16:01;;;;;;;10.43;8.35;;;;;;;;;;6216795;28;20524;-84
2023/10/20 14:19:04;;;;;;;11.80;8.68;;;;;;;;;;6196946;28;20120;-84
2023/10/20 14:22:06;;;;;;;11.00;7.72;;;;;;;;;;6194859;28;20052;-85
2023/10/20 14:25:08;;;;;;;11.40;8.25;;;;;;;;;;6207301;28;20053;-87
2023/10/20 14:28:11;;;;;;;11.50;7.88;;;;;;;;;;6168108;28;20049;-84
2023/10/20 14:31:13;;;;;;;12.73;8.07;;;;;;;;;;6194082;28;20057;-83
2023/10/20 14:34:15;;;;;;;11.77;8.32;;;;;;;;;;6182857;28;20038;-82
2023/10/20 14:37:17;;;;;;;12.85;9.05;;;;;;;;;;6187327;28;20058;-82
2023/10/20 14:40:19;;;;;;;14.13;10.33;;;;;;;;;;6219481;28;20110;-82
2023/10/20 14:43:21;;;;;;;13.88;10.48;;;;;;;;;;6182258;28;20049;-83
2023/10/20 14:46:23;;;;;;;14.20;9.77;;;;;;;;;;6210076;28;20065;-82
2023/10/20 14:49:24;;;;;;;13.75;9.38;;;;;;;;;;6206032;28;20038;-82
2023/10/20 14:52:29;;;;;;;10.15;7.78;;;;;;;;;;6199586;28;20153;-81
2023/10/20 14:55:34;;;;;;;12.85;8.15;;;;;;;;;;6166067;28;20610;-82
2023/10/20 14:58:35;;;;;;;8.88;6.63;;;;;;;;;;6209417;28;20101;-82
2023/10/20 15:01:37;;;;;;;9.48;7.53;;;;;;;;;;6200833;28;20057;-83
2023/10/20 15:04:39;;;;;;;13.32;8.20;;;;;;;;;;6197329;28;20046;-82
2023/10/20 15:07:42;;;;;;;11.00;7.57;;;;;;;;;;6210104;28;20053;-83
2023/10/20 15:10:44;;;;;;;12.27;9.82;;;;;;;;;;6210618;28;20041;-83
2023/10/20 15:13:46;;;;;;;8.93;6.47;;;;;;;;;;6206981;28;20050;-83
2023/10/20 15:16:47;;;;;;;10.32;6.20;;;;;;;;;;6192385;28;20057;-83
2023/10/20 15:19:49;;;;;;;5.72;4.85;;;;;;;;;;6214167;28;20055;-83
2023/10/20 15:22:51;;;;;;;6.95;4.90;;;;;;;;;;6185389;28;20378;-82
2023/10/20 15:26:06;;;;;;;6.72;4.40;;;;;;;;;;6201213;28;20136;-82
2023/10/20 15:29:09;;;;;;;6.38;4.60;;;;;;;;;;6194343;28;20042;-81
2023/10/20 15:32:12;;;;;;;6.57;5.03;;;;;;;;;;6211924;28;20042;-81
2023/10/20 15:35:15;;;;;;;8.02;4.90;;;;;;;;;;6194898;28;20048;-81
2023/10/20 15:38:17;;;;;;;5.85;4.45;;;;;;;;;;6186975;28;20046;-82
2023/10/20 15:41:19;;;;;;;3.47;2.38;;;;;;;;;;6184926;28;20050;-81
2023/10/20 15:44:21;;;;;;;3.63;2.00;;;;;;;;;;6194520;28;20046;-82
2023/10/20 15:47:22;;;;;;;3.42;2.08;;;;;;;;;;6198372;28;20034;-82
2023/10/20 15:50:24;;;;;;;2.83;2.22;;;;;;;;;;6238294;28;20044;-81
2023/10/20 15:53:26;;;;;;;3.17;2.20;;;;;;;;;;6233246;28;20054;-81
2023/10/20 15:56:28;;;;;;;1.40;1.25;;;;;;;;;;6202466;28;20050;-81
2023/10/20 15:59:30;;;;;;;1.30;0.90;;;;;;;;;;6207876;28;20050;-82
2023/10/20 16:02:32;;;;;;;1.60;0.90;;;;;;;;;;6179083;28;20056;-82
2023/10/20 16:05:34;;;;;;;2.08;0.80;;;;;;;;;;6195762;28;20501;-82
2023/10/20 16:08:35;;;;;;;1.45;0.82;;;;;;;;;;6185820;28;20509;-82
2023/10/20 16:11:37;;;;;;;0.90;0.70;;;;;;;;;;6194513;28;20077;-82
2023/10/20 16:14:39;;;;;;;1.33;0.90;;;;;;;;;;6190013;28;20145;-82
2023/10/20 16:17:41;;;;;;;5.30;2.83;;;;;;;;;;6204840;28;20045;-82
2023/10/20 16:20:44;;;;;;;3.60;2.78;;;;;;;;;;6206933;28;20050;-83
2023/10/20 16:23:45;;;;;;;4.85;3.33;;;;;;;;;;6196964;28;20128;-83
2023/10/20 16:26:47;;;;;;;1.95;1.10;;;;;;;;;;6208685;28;20587;-83
2023/10/20 16:29:49;;;;;;;1.50;1.40;;;;;;;;;;6180003;28;20046;-83
2023/10/20 16:32:51;;;;;;;4.30;2.30;;;;;;;;;;6192406;28;20071;-83
2023/10/20 16:35:54;;;;;;;2.22;2.03;;;;;;;;;;6200110;28;20049;-83
2023/10/20 16:38:56;;;;;;;1.40;1.17;;;;;;;;;;6199731;28;20056;-83
2023/10/20 16:41:58;;;;;;;1.80;1.10;;;;;;;;;;6205184;28;20448;-84
2023/10/20 16:45:06;;;;;;;1.70;1.27;;;;;;;;;;6203345;28;20053;-84
2023/10/20 16:48:08;;;;;;;2.20;1.40;;;;;;;;;;6180951;28;20060;-83
2023/10/20 16:51:10;;;;;;;1.65;1.40;;;;;;;;;;6225212;28;20053;-82
2023/10/20 16:54:15;;;;;;;4.90;3.40;;;;;;;;;;6227978;28;20061;-82
2023/10/20 16:57:18;;;;;;;6.38;3.40;;;;;;;;;;6200598;28;20066;-82
2023/10/20 17:00:19;;;;;;;;;;;;;;;;;;6192213;28;20080;-83
2023/10/20 17:03:22;;;;;;;;;;;;;;;;;;6209685;28;19929;-82
2023/10/20 17:06:24;;;;;;;;;;;;;;;;;;6184466;28;19925;-82
2023/10/20 17:09:25;;;;;;;;;;;;;;;;;;6189870;28;19929;-82
2023/10/20 17:12:27;;;;;;;;;;;;;;;;;;6188164;28;20052;-81
2023/10/20 17:15:30;;;;;;;;;;;;;;;;;;6180145;28;19974;-81
2023/10/20 17:18:32;;;;;;;;;;;;;;;;;;6171477;28;19975;-83
2023/10/20 17:21:33;;;;;;;;;;;;;;;;;;6191270;28;19960;-82
2023/10/20 17:24:35;;;;;;;;;;;;;;;;;;6199093;28;19984;-82
2023/10/20 17:27:37;;;;;;;;;;;;;;;;;;6201496;28;20012;-82
2023/10/20 17:30:38;;;;;;;;;;;;;;;;;;6185551;28;20184;-83
2023/10/20 17:33:40;;;;;;;;;;;;;;;;;;6188462;28;20015;-81
2023/10/20 17:36:42;;;;;;;;;;;;;;;;;;6206816;28;19953;-82
2023/10/20 17:39:43;;;;;;;;;;;;;;;;;;6205361;28;19926;-82
2023/10/20 17:42:45;;;;;;;;;;;;;;;;;;6176323;28;19925;-81
2023/10/20 17:45:50;;;;;;;;;;;;;;;;;;6199518;28;20312;-83
2023/10/20 17:48:52;;;;;;;;;;;;;;;;;;6197970;28;20442;-82
2023/10/20 17:51:53;;;;;;;;;;;;;;;;;;6180498;28;20012;-82
2023/10/20 17:54:56;;;;;;;;;;;;;;;;;;6201343;28;20407;-81
2023/10/20 17:57:58;;;;;;;;;;;;;;;;;;6174782;28;20384;-81
2023/10/20 18:01:10;;;;;;;;;;;;;;;;;;6181155;28;20072;-82
2023/10/20 18:04:13;;;;;;;;;;;;;;;;;;6197044;28;20375;-83
2023/10/20 18:07:14;;;;;;;;;;;;;;;;;;6183209;28;19989;-81
2023/10/20 18:10:16;;;;;;;;;;;;;;;;;;6165021;28;20382;-82
2023/10/20 18:13:17;;;;;;;;;;;;;;;;;;6192753;28;19953;-81
2023/10/20 18:16:20;;;;;;;;;;;;;;;;;;6193626;28;19929;-82
2023/10/20 18:19:21;;;;;;;;;;;;;;;;;;6207084;28;19924;-83
2023/10/20 18:22:23;;;;;;;;;;;;;;;;;;6202221;28;19921;-83
2023/10/20 18:25:27;;;;;;;;;;;;;;;;;;6188574;28;19933;-82
2023/10/20 18:28:29;;;;;;;;;;;;;;;;;;6185178;28;20380;-82
2023/10/20 18:31:31;;;;;;;;;;;;;;;;;;6193963;28;20273;-82